sensor_id;sensor_type;location;lat;lon;timestamp;temperature;humidity
63445;DHT22;49573;47.682;9.170;2022-12-07T01:08:06;3.60;83.30
63445;DHT22;49573;47.682;9.170;2022-12-07T01:10:59;3.40;83.70
63445;DHT22;49573;47.682;9.170;2022-12-07T01:13:46;3.20;84.60
63445;DHT22;49573;47.682;9.170;2022-12-07T01:16:32;3.20;84.70
63445;DHT22;49573;47.682;9.170;2022-12-07T01:19:19;3.20;84.80
63445;DHT22;49573;47.682;9.170;2022-12-07T01:22:05;3.30;84.70
63445;DHT22;49573;47.682;9.170;2022-12-07T01:24:51;3.20;84.80
63445;DHT22;49573;47.682;9.170;2022-12-07T01:27:38;3.20;85.00
63445;DHT22;49573;47.682;9.170;2022-12-07T01:30:24;3.20;84.70
63445;DHT22;49573;47.682;9.170;2022-12-07T01:33:10;3.20;84.70
63445;DHT22;49573;47.682;9.170;2022-12-07T01:36:01;3.20;84.80
63445;DHT22;49573;47.682;9.170;2022-12-07T01:38:49;3.10;85.10
63445;DHT22;49573;47.682;9.170;2022-12-07T01:41:39;3.10;84.90
63445;DHT22;49573;47.682;9.170;2022-12-07T01:44:28;3.20;84.90
63445;DHT22;49573;47.682;9.170;2022-12-07T01:47:18;3.20;84.80
63445;DHT22;49573;47.682;9.170;2022-12-07T01:50:05;3.10;85.10
63445;DHT22;49573;47.682;9.170;2022-12-07T01:52:53;3.20;84.80
63445;DHT22;49573;47.682;9.170;2022-12-07T01:55:43;3.20;84.80
63445;DHT22;49573;47.682;9.170;2022-12-07T01:58:31;3.20;84.90
63445;DHT22;49573;47.682;9.170;2022-12-07T02:01:19;3.20;85.00
63445;DHT22;49573;47.682;9.170;2022-12-07T02:04:06;3.10;85.00
63445;DHT22;49573;47.682;9.170;2022-12-07T02:06:52;3.10;85.10
63445;DHT22;49573;47.682;9.170;2022-12-07T02:09:39;3.20;84.90
63445;DHT22;49573;47.682;9.170;2022-12-07T02:12:25;3.20;85.10
63445;DHT22;49573;47.682;9.170;2022-12-07T02:15:11;3.20;85.10
63445;DHT22;49573;47.682;9.170;2022-12-07T02:18:04;3.20;84.90
63445;DHT22;49573;47.682;9.170;2022-12-07T02:20:57;3.20;84.90
63445;DHT22;49573;47.682;9.170;2022-12-07T02:24:13;3.30;84.80
63445;DHT22;49573;47.682;9.170;2022-12-07T02:27:34;3.30;84.80
63445;DHT22;49573;47.682;9.170;2022-12-07T02:30:27;3.30;84.80
63445;DHT22;49573;47.682;9.170;2022-12-07T02:33:17;3.30;84.70
63445;DHT22;49573;47.682;9.170;2022-12-07T02:36:07;3.30;84.80
63445;DHT22;49573;47.682;9.170;2022-12-07T02:38:58;3.20;85.00
63445;DHT22;49573;47.682;9.170;2022-12-07T02:41:47;3.20;85.20
63445;DHT22;49573;47.682;9.170;2022-12-07T02:44:36;3.20;85.20
63445;DHT22;49573;47.682;9.170;2022-12-07T02:47:25;3.20;85.10
63445;DHT22;49573;47.682;9.170;2022-12-07T02:50:12;3.20;85.10
63445;DHT22;49573;47.682;9.170;2022-12-07T02:52:58;3.20;85.20
63445;DHT22;49573;47.682;9.170;2022-12-07T02:55:44;3.20;85.20
63445;DHT22;49573;47.682;9.170;2022-12-07T02:58:38;3.20;85.20
63445;DHT22;49573;47.682;9.170;2022-12-07T03:01:32;3.20;85.20
63445;DHT22;49573;47.682;9.170;2022-12-07T03:04:32;3.20;85.20
63445;DHT22;49573;47.682;9.170;2022-12-07T03:07:25;3.20;85.10
63445;DHT22;49573;47.682;9.170;2022-12-07T03:10:19;3.30;85.00
63445;DHT22;49573;47.682;9.170;2022-12-07T03:13:12;3.30;85.10
63445;DHT22;49573;47.682;9.170;2022-12-07T03:16:09;3.30;85.00
63445;DHT22;49573;47.682;9.170;2022-12-07T03:19:02;3.20;85.30
63445;DHT22;49573;47.682;9.170;2022-12-07T03:21:55;3.30;85.00
63445;DHT22;49573;47.682;9.170;2022-12-07T03:24:46;3.30;85.20
63445;DHT22;49573;47.682;9.170;2022-12-07T03:27:35;3.30;85.00
63445;DHT22;49573;47.682;9.170;2022-12-07T03:30:24;3.40;84.80
63445;DHT22;49573;47.682;9.170;2022-12-07T03:33:17;3.40;84.80
63445;DHT22;49573;47.682;9.170;2022-12-07T03:36:11;3.40;84.80
63445;DHT22;49573;47.682;9.170;2022-12-07T03:39:06;3.40;84.70
63445;DHT22;49573;47.682;9.170;2022-12-07T03:41:54;3.40;84.40
63445;DHT22;49573;47.682;9.170;2022-12-07T03:44:40;3.40;84.40
63445;DHT22;49573;47.682;9.170;2022-12-07T03:47:30;3.50;84.20
63445;DHT22;49573;47.682;9.170;2022-12-07T03:50:24;3.50;84.10
63445;DHT22;49573;47.682;9.170;2022-12-07T03:53:14;3.40;84.10
63445;DHT22;49573;47.682;9.170;2022-12-07T03:56:02;3.50;84.10
63445;DHT22;49573;47.682;9.170;2022-12-07T03:58:49;3.40;84.10
63445;DHT22;49573;47.682;9.170;2022-12-07T04:01:35;3.50;84.00
63445;DHT22;49573;47.682;9.170;2022-12-07T04:04:21;3.40;83.80
63445;DHT22;49573;47.682;9.170;2022-12-07T04:07:08;3.40;84.00
63445;DHT22;49573;47.682;9.170;2022-12-07T04:09:54;3.40;83.90
63445;DHT22;49573;47.682;9.170;2022-12-07T04:12:44;3.50;84.00
63445;DHT22;49573;47.682;9.170;2022-12-07T04:15:30;3.40;84.00
63445;DHT22;49573;47.682;9.170;2022-12-07T04:18:16;3.30;84.10
63445;DHT22;49573;47.682;9.170;2022-12-07T04:21:02;3.40;83.80
63445;DHT22;49573;47.682;9.170;2022-12-07T04:23:48;3.40;83.80
63445;DHT22;49573;47.682;9.170;2022-12-07T04:26:35;3.40;84.00
63445;DHT22;49573;47.682;9.170;2022-12-07T04:29:23;3.30;83.90
63445;DHT22;49573;47.682;9.170;2022-12-07T04:32:09;3.30;84.30
63445;DHT22;49573;47.682;9.170;2022-12-07T04:34:55;3.40;84.10
63445;DHT22;49573;47.682;9.170;2022-12-07T04:37:41;3.30;83.90
63445;DHT22;49573;47.682;9.170;2022-12-07T04:40:27;3.30;84.30
63445;DHT22;49573;47.682;9.170;2022-12-07T04:43:13;3.30;84.40
63445;DHT22;49573;47.682;9.170;2022-12-07T04:46:01;3.30;84.50
63445;DHT22;49573;47.682;9.170;2022-12-07T04:48:50;3.30;84.60
63445;DHT22;49573;47.682;9.170;2022-12-07T04:51:37;3.30;84.60
63445;DHT22;49573;47.682;9.170;2022-12-07T04:54:23;3.30;85.00
63445;DHT22;49573;47.682;9.170;2022-12-07T04:57:09;3.20;85.30
63445;DHT22;49573;47.682;9.170;2022-12-07T04:59:55;3.20;85.60
63445;DHT22;49573;47.682;9.170;2022-12-07T05:02:42;3.20;85.70
63445;DHT22;49573;47.682;9.170;2022-12-07T05:05:29;3.30;85.60
63445;DHT22;49573;47.682;9.170;2022-12-07T05:08:15;3.30;85.90
63445;DHT22;49573;47.682;9.170;2022-12-07T05:11:01;3.30;85.80
63445;DHT22;49573;47.682;9.170;2022-12-07T05:13:47;3.30;86.50
63445;DHT22;49573;47.682;9.170;2022-12-07T05:16:33;3.20;86.80
63445;DHT22;49573;47.682;9.170;2022-12-07T05:19:21;3.20;86.80
63445;DHT22;49573;47.682;9.170;2022-12-07T05:22:07;3.30;86.80
63445;DHT22;49573;47.682;9.170;2022-12-07T05:24:53;3.20;87.10
63445;DHT22;49573;47.682;9.170;2022-12-07T05:27:39;3.30;87.10
63445;DHT22;49573;47.682;9.170;2022-12-07T05:30:26;3.20;87.20
63445;DHT22;49573;47.682;9.170;2022-12-07T05:33:12;3.20;87.40
63445;DHT22;49573;47.682;9.170;2022-12-07T05:35:59;3.20;87.40
63445;DHT22;49573;47.682;9.170;2022-12-07T05:38:51;3.30;87.00
63445;DHT22;49573;47.682;9.170;2022-12-07T05:41:37;3.30;87.10
63445;DHT22;49573;47.682;9.170;2022-12-07T05:44:43;3.30;87.10
63445;DHT22;49573;47.682;9.170;2022-12-07T05:47:29;3.30;87.20
63445;DHT22;49573;47.682;9.170;2022-12-07T05:50:15;3.30;87.30
63445;DHT22;49573;47.682;9.170;2022-12-07T05:53:03;3.20;87.50
63445;DHT22;49573;47.682;9.170;2022-12-07T05:55:49;3.30;87.50
63445;DHT22;49573;47.682;9.170;2022-12-07T05:58:35;3.30;87.40
63445;DHT22;49573;47.682;9.170;2022-12-07T06:01:40;3.30;87.30
63445;DHT22;49573;47.682;9.170;2022-12-07T06:04:27;3.30;87.50
63445;DHT22;49573;47.682;9.170;2022-12-07T06:07:15;3.40;87.30
63445;DHT22;49573;47.682;9.170;2022-12-07T06:10:03;3.40;87.20
63445;DHT22;49573;47.682;9.170;2022-12-07T06:12:49;3.50;87.30
63445;DHT22;49573;47.682;9.170;2022-12-07T06:15:35;3.50;87.10
63445;DHT22;49573;47.682;9.170;2022-12-07T06:18:22;3.50;86.90
63445;DHT22;49573;47.682;9.170;2022-12-07T06:21:08;3.50;86.80
63445;DHT22;49573;47.682;9.170;2022-12-07T06:23:54;3.60;86.80
63445;DHT22;49573;47.682;9.170;2022-12-07T06:26:42;3.60;86.80
63445;DHT22;49573;47.682;9.170;2022-12-07T06:29:28;3.60;86.70
63445;DHT22;49573;47.682;9.170;2022-12-07T06:32:14;3.50;86.70
63445;DHT22;49573;47.682;9.170;2022-12-07T06:35:00;3.50;86.60
63445;DHT22;49573;47.682;9.170;2022-12-07T06:37:46;3.60;86.50
63445;DHT22;49573;47.682;9.170;2022-12-07T06:40:32;3.50;86.40
63445;DHT22;49573;47.682;9.170;2022-12-07T06:43:20;3.60;86.30
63445;DHT22;49573;47.682;9.170;2022-12-07T06:46:06;3.60;86.30
63445;DHT22;49573;47.682;9.170;2022-12-07T06:48:52;3.60;86.40
63445;DHT22;49573;47.682;9.170;2022-12-07T06:51:38;3.60;86.30
63445;DHT22;49573;47.682;9.170;2022-12-07T06:54:27;3.60;86.30
63445;DHT22;49573;47.682;9.170;2022-12-07T06:57:13;3.60;86.40
63445;DHT22;49573;47.682;9.170;2022-12-07T07:00:01;3.60;86.10
63445;DHT22;49573;47.682;9.170;2022-12-07T07:02:47;3.60;86.20
63445;DHT22;49573;47.682;9.170;2022-12-07T07:05:33;3.60;86.20
63445;DHT22;49573;47.682;9.170;2022-12-07T07:08:19;3.60;86.30
63445;DHT22;49573;47.682;9.170;2022-12-07T07:11:06;3.70;86.30
63445;DHT22;49573;47.682;9.170;2022-12-07T07:13:52;3.60;86.20
63445;DHT22;49573;47.682;9.170;2022-12-07T07:16:40;3.70;86.20
63445;DHT22;49573;47.682;9.170;2022-12-07T07:19:27;3.70;86.20
63445;DHT22;49573;47.682;9.170;2022-12-07T07:22:13;3.70;86.20
63445;DHT22;49573;47.682;9.170;2022-12-07T07:24:59;3.60;86.10
63445;DHT22;49573;47.682;9.170;2022-12-07T07:27:45;3.70;86.10
63445;DHT22;49573;47.682;9.170;2022-12-07T07:30:31;3.70;86.10
63445;DHT22;49573;47.682;9.170;2022-12-07T07:33:18;3.70;86.20
63445;DHT22;49573;47.682;9.170;2022-12-07T07:36:05;3.70;86.30
63445;DHT22;49573;47.682;9.170;2022-12-07T07:38:51;3.70;86.20
63445;DHT22;49573;47.682;9.170;2022-12-07T07:41:38;3.70;86.20
63445;DHT22;49573;47.682;9.170;2022-12-07T07:44:24;3.70;86.20
63445;DHT22;49573;47.682;9.170;2022-12-07T07:47:10;3.70;86.10
63445;DHT22;49573;47.682;9.170;2022-12-07T07:49:58;3.80;86.10
63445;DHT22;49573;47.682;9.170;2022-12-07T07:52:44;3.80;86.00
63445;DHT22;49573;47.682;9.170;2022-12-07T07:55:30;3.80;86.00
63445;DHT22;49573;47.682;9.170;2022-12-07T07:58:16;3.80;86.00
63445;DHT22;49573;47.682;9.170;2022-12-07T08:01:05;3.80;86.30
63445;DHT22;49573;47.682;9.170;2022-12-07T08:03:52;3.80;86.30
63445;DHT22;49573;47.682;9.170;2022-12-07T08:06:39;3.80;86.10
63445;DHT22;49573;47.682;9.170;2022-12-07T08:09:27;3.80;86.20
63445;DHT22;49573;47.682;9.170;2022-12-07T08:12:13;3.90;86.00
63445;DHT22;49573;47.682;9.170;2022-12-07T08:14:59;3.90;86.20
63445;DHT22;49573;47.682;9.170;2022-12-07T08:17:46;3.90;86.00
63445;DHT22;49573;47.682;9.170;2022-12-07T08:20:33;3.90;85.90
63445;DHT22;49573;47.682;9.170;2022-12-07T08:23:21;3.90;86.10
63445;DHT22;49573;47.682;9.170;2022-12-07T08:26:09;4.00;86.10
63445;DHT22;49573;47.682;9.170;2022-12-07T08:28:55;4.00;86.20
63445;DHT22;49573;47.682;9.170;2022-12-07T08:31:42;3.80;86.10
63445;DHT22;49573;47.682;9.170;2022-12-07T08:34:28;3.80;86.20
63445;DHT22;49573;47.682;9.170;2022-12-07T08:37:14;3.90;86.10
63445;DHT22;49573;47.682;9.170;2022-12-07T08:40:01;3.90;86.00
63445;DHT22;49573;47.682;9.170;2022-12-07T08:42:51;3.90;86.00
63445;DHT22;49573;47.682;9.170;2022-12-07T08:45:40;3.80;86.10
63445;DHT22;49573;47.682;9.170;2022-12-07T08:48:26;3.90;86.50
63445;DHT22;49573;47.682;9.170;2022-12-07T08:51:13;4.00;86.20
63445;DHT22;49573;47.682;9.170;2022-12-07T08:54:00;4.00;86.20
63445;DHT22;49573;47.682;9.170;2022-12-07T08:56:49;4.10;86.00
63445;DHT22;49573;47.682;9.170;2022-12-07T08:59:37;4.10;86.00
63445;DHT22;49573;47.682;9.170;2022-12-07T09:02:24;4.10;86.00
63445;DHT22;49573;47.682;9.170;2022-12-07T09:05:10;4.20;85.90
63445;DHT22;49573;47.682;9.170;2022-12-07T09:07:59;4.20;86.00
63445;DHT22;49573;47.682;9.170;2022-12-07T09:10:45;4.20;85.80
63445;DHT22;49573;47.682;9.170;2022-12-07T09:13:33;4.30;85.80
63445;DHT22;49573;47.682;9.170;2022-12-07T09:16:19;4.30;85.70
63445;DHT22;49573;47.682;9.170;2022-12-07T09:19:05;4.40;85.70
63445;DHT22;49573;47.682;9.170;2022-12-07T09:21:51;4.30;85.20
63445;DHT22;49573;47.682;9.170;2022-12-07T09:24:37;4.30;85.50
63445;DHT22;49573;47.682;9.170;2022-12-07T09:27:24;4.30;85.50
63445;DHT22;49573;47.682;9.170;2022-12-07T09:30:11;4.40;85.30
63445;DHT22;49573;47.682;9.170;2022-12-07T09:32:58;4.40;85.40
63445;DHT22;49573;47.682;9.170;2022-12-07T09:35:44;4.40;85.10
63445;DHT22;49573;47.682;9.170;2022-12-07T09:38:30;4.40;85.10
63445;DHT22;49573;47.682;9.170;2022-12-07T09:41:19;4.40;84.80
63445;DHT22;49573;47.682;9.170;2022-12-07T09:44:06;4.40;85.20
63445;DHT22;49573;47.682;9.170;2022-12-07T09:46:55;4.50;85.40
63445;DHT22;49573;47.682;9.170;2022-12-07T09:49:42;4.50;85.40
63445;DHT22;49573;47.682;9.170;2022-12-07T09:52:29;4.50;85.10
63445;DHT22;49573;47.682;9.170;2022-12-07T09:55:18;4.40;84.80
63445;DHT22;49573;47.682;9.170;2022-12-07T09:58:05;4.40;84.40
63445;DHT22;49573;47.682;9.170;2022-12-07T10:00:54;4.40;85.00
63445;DHT22;49573;47.682;9.170;2022-12-07T10:03:47;4.50;84.60
63445;DHT22;49573;47.682;9.170;2022-12-07T10:06:34;4.40;84.70
63445;DHT22;49573;47.682;9.170;2022-12-07T10:09:21;4.50;85.00
63445;DHT22;49573;47.682;9.170;2022-12-07T10:12:09;4.50;83.90
63445;DHT22;49573;47.682;9.170;2022-12-07T10:14:59;4.50;84.40
63445;DHT22;49573;47.682;9.170;2022-12-07T10:17:49;4.50;84.40
63445;DHT22;49573;47.682;9.170;2022-12-07T10:20:36;4.60;84.50
63445;DHT22;49573;47.682;9.170;2022-12-07T10:23:23;4.70;84.30
63445;DHT22;49573;47.682;9.170;2022-12-07T10:26:30;4.70;84.30
63445;DHT22;49573;47.682;9.170;2022-12-07T10:29:18;4.50;83.80
63445;DHT22;49573;47.682;9.170;2022-12-07T10:32:06;4.60;84.20
63445;DHT22;49573;47.682;9.170;2022-12-07T10:35:23;4.60;84.20
63445;DHT22;49573;47.682;9.170;2022-12-07T10:38:16;4.50;83.30
63445;DHT22;49573;47.682;9.170;2022-12-07T10:41:04;4.50;83.80
63445;DHT22;49573;47.682;9.170;2022-12-07T10:43:52;4.50;83.70
63445;DHT22;49573;47.682;9.170;2022-12-07T10:47:06;4.50;83.80
63445;DHT22;49573;47.682;9.170;2022-12-07T10:50:14;4.50;83.50
63445;DHT22;49573;47.682;9.170;2022-12-07T10:53:26;4.50;83.70
63445;DHT22;49573;47.682;9.170;2022-12-07T10:56:40;4.50;83.80
63445;DHT22;49573;47.682;9.170;2022-12-07T10:59:50;4.50;83.60
63445;DHT22;49573;47.682;9.170;2022-12-07T11:03:00;4.50;83.50
63445;DHT22;49573;47.682;9.170;2022-12-07T11:05:54;4.50;83.40
63445;DHT22;49573;47.682;9.170;2022-12-07T11:08:54;4.40;83.40
63445;DHT22;49573;47.682;9.170;2022-12-07T11:11:49;4.50;83.20
63445;DHT22;49573;47.682;9.170;2022-12-07T11:14:43;4.60;83.70
63445;DHT22;49573;47.682;9.170;2022-12-07T11:17:34;4.60;82.60
63445;DHT22;49573;47.682;9.170;2022-12-07T11:20:35;4.60;82.30
63445;DHT22;49573;47.682;9.170;2022-12-07T11:23:29;4.50;82.70
63445;DHT22;49573;47.682;9.170;2022-12-07T11:26:34;4.40;82.90
63445;DHT22;49573;47.682;9.170;2022-12-07T11:29:44;4.50;82.90
63445;DHT22;49573;47.682;9.170;2022-12-07T11:32:51;4.50;83.10
63445;DHT22;49573;47.682;9.170;2022-12-07T11:35:51;4.60;82.80
63445;DHT22;49573;47.682;9.170;2022-12-07T11:38:43;4.70;82.40
63445;DHT22;49573;47.682;9.170;2022-12-07T11:41:35;4.70;82.60
63445;DHT22;49573;47.682;9.170;2022-12-07T11:44:28;4.80;82.50
63445;DHT22;49573;47.682;9.170;2022-12-07T11:47:22;4.80;82.20
63445;DHT22;49573;47.682;9.170;2022-12-07T11:50:25;4.80;82.50
63445;DHT22;49573;47.682;9.170;2022-12-07T11:53:17;4.70;82.00
63445;DHT22;49573;47.682;9.170;2022-12-07T11:56:09;4.70;82.50
63445;DHT22;49573;47.682;9.170;2022-12-07T11:59:01;4.80;82.00
63445;DHT22;49573;47.682;9.170;2022-12-07T12:01:53;4.80;82.00
63445;DHT22;49573;47.682;9.170;2022-12-07T12:04:50;4.80;81.70
63445;DHT22;49573;47.682;9.170;2022-12-07T12:07:37;4.80;82.30
63445;DHT22;49573;47.682;9.170;2022-12-07T12:10:29;4.90;82.00
63445;DHT22;49573;47.682;9.170;2022-12-07T12:13:29;4.90;81.70
63445;DHT22;49573;47.682;9.170;2022-12-07T12:19:42;4.90;81.30
63445;DHT22;49573;47.682;9.170;2022-12-07T12:22:34;4.90;80.90
63445;DHT22;49573;47.682;9.170;2022-12-07T12:25:25;4.90;81.50
63445;DHT22;49573;47.682;9.170;2022-12-07T12:28:24;4.90;80.80
63445;DHT22;49573;47.682;9.170;2022-12-07T12:31:15;5.00;81.10
63445;DHT22;49573;47.682;9.170;2022-12-07T12:34:31;4.90;80.60
63445;DHT22;49573;47.682;9.170;2022-12-07T12:37:43;5.00;80.40
63445;DHT22;49573;47.682;9.170;2022-12-07T12:40:45;5.10;80.60
63445;DHT22;49573;47.682;9.170;2022-12-07T12:43:45;5.00;79.90
63445;DHT22;49573;47.682;9.170;2022-12-07T12:46:50;5.00;79.70
63445;DHT22;49573;47.682;9.170;2022-12-07T12:49:40;5.00;79.70
63445;DHT22;49573;47.682;9.170;2022-12-07T12:52:50;5.00;79.50
63445;DHT22;49573;47.682;9.170;2022-12-07T12:56:07;5.00;79.10
63445;DHT22;49573;47.682;9.170;2022-12-07T12:59:18;5.00;79.10
63445;DHT22;49573;47.682;9.170;2022-12-07T13:02:19;5.00;78.90
63445;DHT22;49573;47.682;9.170;2022-12-07T13:05:19;4.90;78.90
63445;DHT22;49573;47.682;9.170;2022-12-07T13:08:15;5.00;78.90
63445;DHT22;49573;47.682;9.170;2022-12-07T13:11:18;5.00;78.90
63445;DHT22;49573;47.682;9.170;2022-12-07T13:17:58;5.10;78.70
63445;DHT22;49573;47.682;9.170;2022-12-07T13:20:49;5.00;77.50
63445;DHT22;49573;47.682;9.170;2022-12-07T13:23:37;5.10;78.00
63445;DHT22;49573;47.682;9.170;2022-12-07T13:26:33;5.10;77.60
63445;DHT22;49573;47.682;9.170;2022-12-07T13:29:21;5.00;77.40
63445;DHT22;49573;47.682;9.170;2022-12-07T13:32:23;5.00;76.90
63445;DHT22;49573;47.682;9.170;2022-12-07T13:35:28;5.10;76.60
63445;DHT22;49573;47.682;9.170;2022-12-07T13:38:25;5.10;77.30
63445;DHT22;49573;47.682;9.170;2022-12-07T13:41:13;5.10;76.70
63445;DHT22;49573;47.682;9.170;2022-12-07T13:44:02;5.10;75.80
63445;DHT22;49573;47.682;9.170;2022-12-07T13:46:54;5.10;76.30
63445;DHT22;49573;47.682;9.170;2022-12-07T13:49:47;5.20;76.20
63445;DHT22;49573;47.682;9.170;2022-12-07T13:52:43;5.10;75.50
63445;DHT22;49573;47.682;9.170;2022-12-07T13:55:31;5.20;75.10
63445;DHT22;49573;47.682;9.170;2022-12-07T13:58:18;5.20;75.10
63445;DHT22;49573;47.682;9.170;2022-12-07T14:01:05;5.20;75.10
63445;DHT22;49573;47.682;9.170;2022-12-07T14:03:51;5.30;75.70
63445;DHT22;49573;47.682;9.170;2022-12-07T14:06:48;5.20;75.60
63445;DHT22;49573;47.682;9.170;2022-12-07T14:09:34;5.20;76.20
63445;DHT22;49573;47.682;9.170;2022-12-07T14:12:22;5.20;76.60
63445;DHT22;49573;47.682;9.170;2022-12-07T14:15:20;5.30;76.60
63445;DHT22;49573;47.682;9.170;2022-12-07T14:18:25;5.20;76.80
63445;DHT22;49573;47.682;9.170;2022-12-07T14:21:16;5.30;77.40
63445;DHT22;49573;47.682;9.170;2022-12-07T14:24:17;5.30;76.80
63445;DHT22;49573;47.682;9.170;2022-12-07T14:27:17;5.20;77.10
63445;DHT22;49573;47.682;9.170;2022-12-07T14:30:14;5.30;77.10
63445;DHT22;49573;47.682;9.170;2022-12-07T14:33:02;5.20;76.50
63445;DHT22;49573;47.682;9.170;2022-12-07T14:35:48;5.20;76.70
63445;DHT22;49573;47.682;9.170;2022-12-07T14:38:35;5.20;76.70
63445;DHT22;49573;47.682;9.170;2022-12-07T14:41:21;5.10;76.40
63445;DHT22;49573;47.682;9.170;2022-12-07T14:44:26;5.00;75.20
63445;DHT22;49573;47.682;9.170;2022-12-07T14:47:14;5.10;75.60
63445;DHT22;49573;47.682;9.170;2022-12-07T14:50:00;5.00;75.80
63445;DHT22;49573;47.682;9.170;2022-12-07T14:52:49;5.00;75.40
63445;DHT22;49573;47.682;9.170;2022-12-07T14:55:37;5.00;75.50
63445;DHT22;49573;47.682;9.170;2022-12-07T14:58:23;5.00;76.10
63445;DHT22;49573;47.682;9.170;2022-12-07T15:01:09;5.00;76.40
63445;DHT22;49573;47.682;9.170;2022-12-07T15:03:56;5.00;77.00
63445;DHT22;49573;47.682;9.170;2022-12-07T15:06:54;5.00;77.10
63445;DHT22;49573;47.682;9.170;2022-12-07T15:09:40;5.00;77.30
63445;DHT22;49573;47.682;9.170;2022-12-07T15:12:27;4.90;77.60
63445;DHT22;49573;47.682;9.170;2022-12-07T15:15:13;5.00;78.30
63445;DHT22;49573;47.682;9.170;2022-12-07T15:17:59;5.00;78.90
63445;DHT22;49573;47.682;9.170;2022-12-07T15:20:47;4.90;79.00
63445;DHT22;49573;47.682;9.170;2022-12-07T15:23:33;5.00;79.30
63445;DHT22;49573;47.682;9.170;2022-12-07T15:26:19;4.90;79.00
63445;DHT22;49573;47.682;9.170;2022-12-07T15:29:06;4.90;79.10
63445;DHT22;49573;47.682;9.170;2022-12-07T15:31:53;4.80;79.10
63445;DHT22;49573;47.682;9.170;2022-12-07T15:34:39;4.80;79.50
63445;DHT22;49573;47.682;9.170;2022-12-07T15:37:27;4.80;80.00
63445;DHT22;49573;47.682;9.170;2022-12-07T15:40:14;4.70;80.30
63445;DHT22;49573;47.682;9.170;2022-12-07T15:43:00;4.60;80.80
63445;DHT22;49573;47.682;9.170;2022-12-07T15:45:49;4.60;80.90
63445;DHT22;49573;47.682;9.170;2022-12-07T15:48:35;4.70;80.90
63445;DHT22;49573;47.682;9.170;2022-12-07T15:51:21;4.60;81.20
63445;DHT22;49573;47.682;9.170;2022-12-07T15:54:12;4.50;81.60
63445;DHT22;49573;47.682;9.170;2022-12-07T15:56:59;4.50;81.60
63445;DHT22;49573;47.682;9.170;2022-12-07T15:59:45;4.50;81.90
63445;DHT22;49573;47.682;9.170;2022-12-07T16:02:31;4.50;81.50
63445;DHT22;49573;47.682;9.170;2022-12-07T16:05:17;4.50;81.70
63445;DHT22;49573;47.682;9.170;2022-12-07T16:08:04;4.50;82.00
63445;DHT22;49573;47.682;9.170;2022-12-07T16:10:51;4.50;81.70
63445;DHT22;49573;47.682;9.170;2022-12-07T16:13:37;4.50;82.20
63445;DHT22;49573;47.682;9.170;2022-12-07T16:16:25;4.50;81.80
63445;DHT22;49573;47.682;9.170;2022-12-07T16:19:11;4.50;82.10
63445;DHT22;49573;47.682;9.170;2022-12-07T16:21:57;4.40;81.70
63445;DHT22;49573;47.682;9.170;2022-12-07T16:24:44;4.30;82.00
63445;DHT22;49573;47.682;9.170;2022-12-07T16:27:31;4.30;82.10
63445;DHT22;49573;47.682;9.170;2022-12-07T16:30:18;4.40;82.60
63445;DHT22;49573;47.682;9.170;2022-12-07T16:33:04;4.30;82.70
63445;DHT22;49573;47.682;9.170;2022-12-07T16:35:50;4.40;82.60
63445;DHT22;49573;47.682;9.170;2022-12-07T16:38:37;4.30;82.80
63445;DHT22;49573;47.682;9.170;2022-12-07T16:41:23;4.30;82.70
63445;DHT22;49573;47.682;9.170;2022-12-07T16:44:12;4.30;83.10
63445;DHT22;49573;47.682;9.170;2022-12-07T16:46:59;4.30;83.00
63445;DHT22;49573;47.682;9.170;2022-12-07T16:49:46;4.30;82.70
63445;DHT22;49573;47.682;9.170;2022-12-07T16:52:32;4.20;82.80
63445;DHT22;49573;47.682;9.170;2022-12-07T16:55:18;4.20;83.00
63445;DHT22;49573;47.682;9.170;2022-12-07T16:58:05;4.10;82.90
63445;DHT22;49573;47.682;9.170;2022-12-07T17:00:52;4.10;83.00
63445;DHT22;49573;47.682;9.170;2022-12-07T17:03:39;4.00;83.10
63445;DHT22;49573;47.682;9.170;2022-12-07T17:06:26;4.00;83.10
63445;DHT22;49573;47.682;9.170;2022-12-07T17:09:13;3.90;83.20
63445;DHT22;49573;47.682;9.170;2022-12-07T17:11:59;4.00;83.20
63445;DHT22;49573;47.682;9.170;2022-12-07T17:14:45;4.00;83.10
63445;DHT22;49573;47.682;9.170;2022-12-07T17:17:54;4.00;83.30
63445;DHT22;49573;47.682;9.170;2022-12-07T17:20:40;3.90;83.10
63445;DHT22;49573;47.682;9.170;2022-12-07T17:23:26;3.80;83.10
63445;DHT22;49573;47.682;9.170;2022-12-07T17:26:15;3.80;83.40
63445;DHT22;49573;47.682;9.170;2022-12-07T17:29:02;3.80;83.20
63445;DHT22;49573;47.682;9.170;2022-12-07T17:31:48;3.80;83.20
63445;DHT22;49573;47.682;9.170;2022-12-07T17:34:36;3.80;83.40
63445;DHT22;49573;47.682;9.170;2022-12-07T17:37:22;3.80;83.50
63445;DHT22;49573;47.682;9.170;2022-12-07T17:40:09;3.80;83.60
63445;DHT22;49573;47.682;9.170;2022-12-07T17:42:55;3.80;83.30
63445;DHT22;49573;47.682;9.170;2022-12-07T17:45:42;3.70;83.40
63445;DHT22;49573;47.682;9.170;2022-12-07T17:48:28;3.70;83.50
63445;DHT22;49573;47.682;9.170;2022-12-07T17:51:15;3.70;83.50
63445;DHT22;49573;47.682;9.170;2022-12-07T17:54:20;3.70;83.80
63445;DHT22;49573;47.682;9.170;2022-12-07T17:57:06;3.70;83.60
63445;DHT22;49573;47.682;9.170;2022-12-07T17:59:52;3.70;83.60
63445;DHT22;49573;47.682;9.170;2022-12-07T18:02:40;3.70;83.60
63445;DHT22;49573;47.682;9.170;2022-12-07T18:05:26;3.60;83.30
63445;DHT22;49573;47.682;9.170;2022-12-07T18:08:13;3.60;83.70
63445;DHT22;49573;47.682;9.170;2022-12-07T18:11:00;3.60;83.70
63445;DHT22;49573;47.682;9.170;2022-12-07T18:13:46;3.60;83.70
63445;DHT22;49573;47.682;9.170;2022-12-07T18:16:33;3.60;83.90
63445;DHT22;49573;47.682;9.170;2022-12-07T18:19:20;3.50;83.80
63445;DHT22;49573;47.682;9.170;2022-12-07T18:22:06;3.50;83.70
63445;DHT22;49573;47.682;9.170;2022-12-07T18:24:53;3.50;84.00
63445;DHT22;49573;47.682;9.170;2022-12-07T18:27:40;3.50;83.80
63445;DHT22;49573;47.682;9.170;2022-12-07T18:30:26;3.50;83.70
63445;DHT22;49573;47.682;9.170;2022-12-07T18:33:12;3.30;83.50
63445;DHT22;49573;47.682;9.170;2022-12-07T18:35:59;3.30;84.10
63445;DHT22;49573;47.682;9.170;2022-12-07T18:38:46;3.30;83.90
63445;DHT22;49573;47.682;9.170;2022-12-07T18:41:33;3.40;84.10
63445;DHT22;49573;47.682;9.170;2022-12-07T18:44:20;3.30;83.80
63445;DHT22;49573;47.682;9.170;2022-12-07T18:47:06;3.30;83.80
63445;DHT22;49573;47.682;9.170;2022-12-07T18:49:52;3.20;83.90
63445;DHT22;49573;47.682;9.170;2022-12-07T18:52:38;3.20;84.00
63445;DHT22;49573;47.682;9.170;2022-12-07T18:55:24;3.20;84.10
63445;DHT22;49573;47.682;9.170;2022-12-07T18:58:12;3.20;84.10
63445;DHT22;49573;47.682;9.170;2022-12-07T19:00:58;3.20;84.00
63445;DHT22;49573;47.682;9.170;2022-12-07T19:03:44;3.10;84.00
63445;DHT22;49573;47.682;9.170;2022-12-07T19:06:30;3.10;84.00
63445;DHT22;49573;47.682;9.170;2022-12-07T19:09:17;3.00;84.00
63445;DHT22;49573;47.682;9.170;2022-12-07T19:12:03;3.00;84.20
63445;DHT22;49573;47.682;9.170;2022-12-07T19:14:51;3.00;84.50
63445;DHT22;49573;47.682;9.170;2022-12-07T19:17:40;3.10;84.60
63445;DHT22;49573;47.682;9.170;2022-12-07T19:20:26;3.10;84.30
63445;DHT22;49573;47.682;9.170;2022-12-07T19:23:12;3.00;84.10